sensor_id;sensor_type;location;lat;lon;timestamp;noise_LAeq;noise_LA_min;noise_LA_max;noise_LA01;noise_LA95
72858;Laerm;62742;52.136;4.500;2022-12-18T00:01:19;47.27;42.58;52.67;;
72858;Laerm;62742;52.136;4.500;2022-12-18T00:03:46;47.41;43.41;53.12;;
72858;Laerm;62742;52.136;4.500;2022-12-18T00:06:12;47.28;42.77;54.51;;
72858;Laerm;62742;52.136;4.500;2022-12-18T00:08:40;47.25;43.24;53.25;;
72858;Laerm;62742;52.136;4.500;2022-12-18T00:11:09;47.47;43.10;53.26;;
72858;Laerm;62742;52.136;4.500;2022-12-18T00:13:37;47.38;43.39;53.70;;
72858;Laerm;62742;52.136;4.500;2022-12-18T00:16:05;47.20;42.68;53.83;;
72858;Laerm;62742;52.136;4.500;2022-12-18T00:18:32;47.15;43.30;53.97;;
72858;Laerm;62742;52.136;4.500;2022-12-18T00:21:00;47.17;43.22;54.07;;
72858;Laerm;62742;52.136;4.500;2022-12-18T00:23:27;47.21;43.56;53.89;;
72858;Laerm;62742;52.136;4.500;2022-12-18T00:25:53;47.43;43.18;54.06;;
72858;Laerm;62742;52.136;4.500;2022-12-18T00:28:20;47.19;43.05;52.68;;
72858;Laerm;62742;52.136;4.500;2022-12-18T00:30:46;47.30;42.79;55.67;;
72858;Laerm;62742;52.136;4.500;2022-12-18T00:33:12;47.26;43.49;53.58;;
72858;Laerm;62742;52.136;4.500;2022-12-18T00:35:39;47.27;43.22;54.88;;
72858;Laerm;62742;52.136;4.500;2022-12-18T00:38:05;47.39;43.43;53.88;;
72858;Laerm;62742;52.136;4.500;2022-12-18T00:40:32;47.68;43.66;54.48;;
72858;Laerm;62742;52.136;4.500;2022-12-18T00:42:58;47.68;43.87;54.31;;
72858;Laerm;62742;52.136;4.500;2022-12-18T00:45:26;47.90;42.97;53.80;;
72858;Laerm;62742;52.136;4.500;2022-12-18T00:47:55;47.63;43.78;54.54;;
72858;Laerm;62742;52.136;4.500;2022-12-18T00:50:23;47.50;43.11;53.82;;
72858;Laerm;62742;52.136;4.500;2022-12-18T00:52:51;47.15;42.86;53.19;;
72858;Laerm;62742;52.136;4.500;2022-12-18T00:55:18;47.07;42.37;53.16;;
72858;Laerm;62742;52.136;4.500;2022-12-18T00:57:44;47.09;42.98;53.13;;
72858;Laerm;62742;52.136;4.500;2022-12-18T01:00:13;47.51;42.78;54.18;;
72858;Laerm;62742;52.136;4.500;2022-12-18T01:02:40;47.69;42.59;53.22;;
72858;Laerm;62742;52.136;4.500;2022-12-18T01:05:08;47.67;43.84;53.45;;
72858;Laerm;62742;52.136;4.500;2022-12-18T01:07:34;47.71;43.58;53.55;;
72858;Laerm;62742;52.136;4.500;2022-12-18T01:10:00;47.26;43.41;52.48;;
72858;Laerm;62742;52.136;4.500;2022-12-18T01:12:26;47.26;43.42;52.47;;
72858;Laerm;62742;52.136;4.500;2022-12-18T01:14:53;47.71;43.66;53.10;;
72858;Laerm;62742;52.136;4.500;2022-12-18T01:17:19;47.74;43.06;54.16;;
72858;Laerm;62742;52.136;4.500;2022-12-18T01:19:45;48.04;44.08;54.37;;
72858;Laerm;62742;52.136;4.500;2022-12-18T01:22:12;48.06;43.62;54.42;;
72858;Laerm;62742;52.136;4.500;2022-12-18T01:24:38;47.95;43.53;54.39;;
72858;Laerm;62742;52.136;4.500;2022-12-18T01:27:04;48.59;43.94;55.27;;
72858;Laerm;62742;52.136;4.500;2022-12-18T01:29:31;47.87;43.60;53.75;;
72858;Laerm;62742;52.136;4.500;2022-12-18T01:31:57;47.76;43.84;53.46;;
72858;Laerm;62742;52.136;4.500;2022-12-18T01:34:24;47.78;43.28;53.37;;
72858;Laerm;62742;52.136;4.500;2022-12-18T01:36:50;47.66;44.19;53.19;;
72858;Laerm;62742;52.136;4.500;2022-12-18T01:39:19;47.59;43.77;53.37;;
72858;Laerm;62742;52.136;4.500;2022-12-18T01:41:46;47.48;43.61;53.04;;
72858;Laerm;62742;52.136;4.500;2022-12-18T01:47:26;47.57;43.80;53.38;;
72858;Laerm;62742;52.136;4.500;2022-12-18T01:49:54;47.72;43.50;53.42;;
72858;Laerm;62742;52.136;4.500;2022-12-18T01:52:21;47.58;43.45;53.55;;
72858;Laerm;62742;52.136;4.500;2022-12-18T01:54:49;47.47;42.95;53.28;;
72858;Laerm;62742;52.136;4.500;2022-12-18T01:57:17;46.92;43.43;52.78;;
72858;Laerm;62742;52.136;4.500;2022-12-18T01:59:45;48.47;43.03;51.69;;
72858;Laerm;62742;52.136;4.500;2022-12-18T02:02:15;49.16;43.77;51.73;;
72858;Laerm;62742;52.136;4.500;2022-12-18T02:04:42;48.97;43.03;51.97;;
72858;Laerm;62742;52.136;4.500;2022-12-18T02:12:23;48.72;42.66;51.61;;
72858;Laerm;62742;52.136;4.500;2022-12-18T02:17:55;47.76;42.45;50.60;;
72858;Laerm;62742;52.136;4.500;2022-12-18T02:20:45;48.58;42.81;51.07;;
72858;Laerm;62742;52.136;4.500;2022-12-18T02:26:27;49.66;43.86;52.71;;
72858;Laerm;62742;52.136;4.500;2022-12-18T02:29:00;48.53;42.01;52.95;;
72858;Laerm;62742;52.136;4.500;2022-12-18T02:31:35;49.38;43.28;52.12;;
72858;Laerm;62742;52.136;4.500;2022-12-18T02:34:04;49.04;43.07;52.02;;
72858;Laerm;62742;52.136;4.500;2022-12-18T02:36:33;48.93;43.45;51.73;;
72858;Laerm;62742;52.136;4.500;2022-12-18T02:39:03;48.73;43.62;51.93;;
72858;Laerm;62742;52.136;4.500;2022-12-18T02:41:31;48.36;43.11;52.06;;
72858;Laerm;62742;52.136;4.500;2022-12-18T02:44:02;49.36;44.21;52.33;;
72858;Laerm;62742;52.136;4.500;2022-12-18T02:46:36;49.19;42.98;52.13;;
72858;Laerm;62742;52.136;4.500;2022-12-18T02:52:11;47.40;43.31;52.92;;
72858;Laerm;62742;52.136;4.500;2022-12-18T02:55:00;46.82;42.39;53.27;;
72858;Laerm;62742;52.136;4.500;2022-12-18T02:57:53;45.89;42.17;51.26;;
72858;Laerm;62742;52.136;4.500;2022-12-18T03:00:24;45.83;41.73;51.46;;
72858;Laerm;62742;52.136;4.500;2022-12-18T03:02:58;47.46;43.03;52.54;;
72858;Laerm;62742;52.136;4.500;2022-12-18T03:05:35;47.30;43.36;54.27;;
72858;Laerm;62742;52.136;4.500;2022-12-18T03:08:08;47.44;43.09;52.99;;
72858;Laerm;62742;52.136;4.500;2022-12-18T03:10:41;47.59;43.36;53.66;;
72858;Laerm;62742;52.136;4.500;2022-12-18T03:13:13;47.62;42.84;53.57;;
72858;Laerm;62742;52.136;4.500;2022-12-18T03:15:45;47.47;43.31;53.20;;
72858;Laerm;62742;52.136;4.500;2022-12-18T03:18:21;47.71;42.90;53.36;;
72858;Laerm;62742;52.136;4.500;2022-12-18T03:20:49;47.49;43.68;53.77;;
72858;Laerm;62742;52.136;4.500;2022-12-18T03:23:21;47.42;43.28;54.15;;
72858;Laerm;62742;52.136;4.500;2022-12-18T03:25:52;47.42;43.31;52.77;;
72858;Laerm;62742;52.136;4.500;2022-12-18T03:28:21;47.38;42.93;52.27;;
72858;Laerm;62742;52.136;4.500;2022-12-18T03:30:57;47.58;43.47;52.73;;
72858;Laerm;62742;52.136;4.500;2022-12-18T03:33:34;47.49;43.50;53.53;;
72858;Laerm;62742;52.136;4.500;2022-12-18T03:36:03;47.56;43.21;53.00;;
72858;Laerm;62742;52.136;4.500;2022-12-18T03:38:30;47.73;43.40;52.67;;
72858;Laerm;62742;52.136;4.500;2022-12-18T03:41:46;47.74;43.50;53.70;;
72858;Laerm;62742;52.136;4.500;2022-12-18T03:43:52;47.54;43.01;53.34;;
72858;Laerm;62742;52.136;4.500;2022-12-18T03:46:33;47.73;43.64;53.17;;
72858;Laerm;62742;52.136;4.500;2022-12-18T03:49:09;47.73;43.57;52.97;;
72858;Laerm;62742;52.136;4.500;2022-12-18T03:51:48;47.92;43.67;53.51;;
72858;Laerm;62742;52.136;4.500;2022-12-18T03:54:17;47.64;42.72;53.47;;
72858;Laerm;62742;52.136;4.500;2022-12-18T03:56:51;47.72;42.94;54.08;;
72858;Laerm;62742;52.136;4.500;2022-12-18T03:59:22;47.48;42.93;53.07;;
72858;Laerm;62742;52.136;4.500;2022-12-18T04:01:52;47.63;43.67;53.42;;
72858;Laerm;62742;52.136;4.500;2022-12-18T04:04:20;47.82;43.37;53.07;;
72858;Laerm;62742;52.136;4.500;2022-12-18T04:06:49;47.91;43.73;53.49;;
72858;Laerm;62742;52.136;4.500;2022-12-18T04:09:16;47.84;43.73;53.10;;
72858;Laerm;62742;52.136;4.500;2022-12-18T04:11:42;47.86;42.75;52.90;;
72858;Laerm;62742;52.136;4.500;2022-12-18T04:14:12;47.56;43.64;53.20;;
72858;Laerm;62742;52.136;4.500;2022-12-18T04:16:38;47.71;43.33;53.57;;
72858;Laerm;62742;52.136;4.500;2022-12-18T04:19:05;47.65;43.63;53.76;;
72858;Laerm;62742;52.136;4.500;2022-12-18T04:21:31;47.46;43.35;52.99;;
72858;Laerm;62742;52.136;4.500;2022-12-18T04:23:57;47.27;42.49;52.88;;
72858;Laerm;62742;52.136;4.500;2022-12-18T04:26:23;47.12;42.52;52.92;;
72858;Laerm;62742;52.136;4.500;2022-12-18T04:28:50;47.18;42.60;53.97;;
72858;Laerm;62742;52.136;4.500;2022-12-18T04:31:16;47.45;43.34;55.13;;
72858;Laerm;62742;52.136;4.500;2022-12-18T04:33:42;47.43;43.64;53.99;;
72858;Laerm;62742;52.136;4.500;2022-12-18T04:36:08;47.39;43.28;53.98;;
72858;Laerm;62742;52.136;4.500;2022-12-18T04:38:35;47.39;43.41;53.73;;
72858;Laerm;62742;52.136;4.500;2022-12-18T04:41:01;47.44;42.97;53.44;;
72858;Laerm;62742;52.136;4.500;2022-12-18T04:43:27;47.28;43.31;53.41;;
72858;Laerm;62742;52.136;4.500;2022-12-18T04:45:53;47.33;42.95;53.08;;
72858;Laerm;62742;52.136;4.500;2022-12-18T04:48:26;47.06;42.97;53.76;;
72858;Laerm;62742;52.136;4.500;2022-12-18T04:50:52;47.41;42.95;53.58;;
72858;Laerm;62742;52.136;4.500;2022-12-18T04:53:19;47.76;43.13;53.13;;
72858;Laerm;62742;52.136;4.500;2022-12-18T04:55:45;47.45;43.12;53.20;;
72858;Laerm;62742;52.136;4.500;2022-12-18T04:58:11;47.32;43.23;52.92;;
72858;Laerm;62742;52.136;4.500;2022-12-18T05:00:37;47.56;43.51;53.01;;
72858;Laerm;62742;52.136;4.500;2022-12-18T05:03:04;47.25;41.52;53.67;;
72858;Laerm;62742;52.136;4.500;2022-12-18T05:05:34;48.18;43.56;53.63;;
72858;Laerm;62742;52.136;4.500;2022-12-18T05:08:01;48.22;43.80;53.76;;
72858;Laerm;62742;52.136;4.500;2022-12-18T05:10:27;47.99;43.55;54.08;;
72858;Laerm;62742;52.136;4.500;2022-12-18T05:12:53;48.00;43.72;53.72;;
72858;Laerm;62742;52.136;4.500;2022-12-18T05:15:30;47.97;43.52;53.19;;
72858;Laerm;62742;52.136;4.500;2022-12-18T05:17:57;47.74;42.60;53.32;;
72858;Laerm;62742;52.136;4.500;2022-12-18T05:20:24;47.55;41.36;54.08;;
72858;Laerm;62742;52.136;4.500;2022-12-18T05:22:51;47.33;42.75;53.78;;
72858;Laerm;62742;52.136;4.500;2022-12-18T05:25:18;47.46;42.65;53.36;;
72858;Laerm;62742;52.136;4.500;2022-12-18T05:27:47;47.69;43.24;53.52;;
72858;Laerm;62742;52.136;4.500;2022-12-18T05:30:15;47.77;42.99;52.56;;
72858;Laerm;62742;52.136;4.500;2022-12-18T05:32:42;48.14;42.95;53.24;;
72858;Laerm;62742;52.136;4.500;2022-12-18T05:35:10;48.03;43.70;54.48;;
72858;Laerm;62742;52.136;4.500;2022-12-18T05:37:36;47.91;43.08;52.85;;
72858;Laerm;62742;52.136;4.500;2022-12-18T05:40:04;48.01;43.19;53.01;;
72858;Laerm;62742;52.136;4.500;2022-12-18T05:42:30;48.09;43.66;53.87;;
72858;Laerm;62742;52.136;4.500;2022-12-18T05:44:57;47.85;43.28;53.73;;
72858;Laerm;62742;52.136;4.500;2022-12-18T05:47:23;47.90;42.99;53.49;;
72858;Laerm;62742;52.136;4.500;2022-12-18T05:49:49;48.13;43.99;53.66;;
72858;Laerm;62742;52.136;4.500;2022-12-18T05:52:15;48.22;43.88;53.65;;
72858;Laerm;62742;52.136;4.500;2022-12-18T05:54:41;48.38;43.72;53.81;;
72858;Laerm;62742;52.136;4.500;2022-12-18T05:57:08;48.19;42.88;55.03;;
72858;Laerm;62742;52.136;4.500;2022-12-18T05:59:34;48.08;43.55;53.79;;
72858;Laerm;62742;52.136;4.500;2022-12-18T06:02:00;48.16;43.84;53.22;;
72858;Laerm;62742;52.136;4.500;2022-12-18T06:04:33;47.93;43.57;53.67;;
72858;Laerm;62742;52.136;4.500;2022-12-18T06:06:59;47.87;43.52;53.64;;
72858;Laerm;62742;52.136;4.500;2022-12-18T06:09:25;47.77;43.72;52.91;;
72858;Laerm;62742;52.136;4.500;2022-12-18T06:11:51;47.50;43.02;53.41;;
72858;Laerm;62742;52.136;4.500;2022-12-18T06:14:18;47.72;43.46;53.20;;
72858;Laerm;62742;52.136;4.500;2022-12-18T06:16:44;47.83;43.52;54.55;;
72858;Laerm;62742;52.136;4.500;2022-12-18T06:19:15;48.13;44.04;53.23;;
72858;Laerm;62742;52.136;4.500;2022-12-18T06:21:42;48.30;43.78;53.76;;
72858;Laerm;62742;52.136;4.500;2022-12-18T06:24:08;48.10;43.29;54.14;;
72858;Laerm;62742;52.136;4.500;2022-12-18T06:26:37;48.03;43.60;53.88;;
72858;Laerm;62742;52.136;4.500;2022-12-18T06:29:03;48.13;44.07;53.30;;
72858;Laerm;62742;52.136;4.500;2022-12-18T06:31:29;48.20;44.02;53.63;;
72858;Laerm;62742;52.136;4.500;2022-12-18T06:33:56;48.23;43.85;53.45;;
72858;Laerm;62742;52.136;4.500;2022-12-18T06:36:22;48.16;44.06;53.75;;
72858;Laerm;62742;52.136;4.500;2022-12-18T06:38:48;48.14;43.90;52.98;;
72858;Laerm;62742;52.136;4.500;2022-12-18T06:41:17;48.49;43.89;53.69;;
72858;Laerm;62742;52.136;4.500;2022-12-18T06:43:44;48.23;43.69;53.39;;
72858;Laerm;62742;52.136;4.500;2022-12-18T06:46:11;48.21;44.02;53.04;;
72858;Laerm;62742;52.136;4.500;2022-12-18T06:48:38;48.13;43.08;53.48;;
72858;Laerm;62742;52.136;4.500;2022-12-18T06:51:04;47.94;43.52;53.07;;
72858;Laerm;62742;52.136;4.500;2022-12-18T06:53:32;48.07;43.87;52.67;;
72858;Laerm;62742;52.136;4.500;2022-12-18T06:56:05;48.07;43.99;53.31;;
72858;Laerm;62742;52.136;4.500;2022-12-18T06:58:32;47.97;43.52;52.78;;
72858;Laerm;62742;52.136;4.500;2022-12-18T07:01:00;48.25;43.63;53.80;;
72858;Laerm;62742;52.136;4.500;2022-12-18T07:03:27;48.31;43.60;54.18;;
72858;Laerm;62742;52.136;4.500;2022-12-18T07:05:53;48.22;43.22;53.76;;
72858;Laerm;62742;52.136;4.500;2022-12-18T07:08:19;48.20;43.82;53.08;;
72858;Laerm;62742;52.136;4.500;2022-12-18T07:10:46;48.19;43.30;53.20;;
72858;Laerm;62742;52.136;4.500;2022-12-18T07:13:12;48.06;43.58;53.84;;
72858;Laerm;62742;52.136;4.500;2022-12-18T07:15:38;47.82;43.20;52.73;;
72858;Laerm;62742;52.136;4.500;2022-12-18T07:18:04;47.89;43.45;53.24;;
72858;Laerm;62742;52.136;4.500;2022-12-18T07:20:31;47.74;43.41;53.40;;
72858;Laerm;62742;52.136;4.500;2022-12-18T07:22:57;47.81;43.14;52.64;;
72858;Laerm;62742;52.136;4.500;2022-12-18T07:25:23;47.55;43.54;52.58;;
72858;Laerm;62742;52.136;4.500;2022-12-18T07:27:49;47.55;43.27;52.78;;
72858;Laerm;62742;52.136;4.500;2022-12-18T07:30:16;47.99;44.03;53.11;;
72858;Laerm;62742;52.136;4.500;2022-12-18T07:32:42;47.94;43.59;53.77;;
72858;Laerm;62742;52.136;4.500;2022-12-18T07:35:08;47.78;43.09;52.69;;
72858;Laerm;62742;52.136;4.500;2022-12-18T07:37:34;47.85;43.59;53.10;;
72858;Laerm;62742;52.136;4.500;2022-12-18T07:40:01;47.86;43.88;52.46;;
72858;Laerm;62742;52.136;4.500;2022-12-18T07:42:27;47.86;43.77;53.49;;
72858;Laerm;62742;52.136;4.500;2022-12-18T07:44:59;47.68;43.26;53.39;;
72858;Laerm;62742;52.136;4.500;2022-12-18T07:47:26;47.48;43.27;52.39;;
72858;Laerm;62742;52.136;4.500;2022-12-18T07:49:52;47.68;43.50;53.38;;
72858;Laerm;62742;52.136;4.500;2022-12-18T07:52:19;47.72;42.87;52.51;;
72858;Laerm;62742;52.136;4.500;2022-12-18T07:54:45;47.85;43.64;53.38;;
72858;Laerm;62742;52.136;4.500;2022-12-18T07:57:14;47.73;43.39;53.64;;
72858;Laerm;62742;52.136;4.500;2022-12-18T07:59:42;47.53;43.29;52.73;;
72858;Laerm;62742;52.136;4.500;2022-12-18T08:02:08;47.80;43.22;52.90;;
72858;Laerm;62742;52.136;4.500;2022-12-18T08:04:35;47.43;42.65;52.48;;
72858;Laerm;62742;52.136;4.500;2022-12-18T08:07:01;47.79;43.07;53.02;;
72858;Laerm;62742;52.136;4.500;2022-12-18T08:09:27;47.69;43.35;53.27;;
72858;Laerm;62742;52.136;4.500;2022-12-18T08:11:54;47.48;43.06;52.62;;
72858;Laerm;62742;52.136;4.500;2022-12-18T08:14:20;48.01;43.11;53.16;;
72858;Laerm;62742;52.136;4.500;2022-12-18T08:16:46;48.15;43.23;54.41;;
72858;Laerm;62742;52.136;4.500;2022-12-18T08:19:12;47.93;42.63;52.91;;
72858;Laerm;62742;52.136;4.500;2022-12-18T08:21:41;47.46;42.99;52.90;;
72858;Laerm;62742;52.136;4.500;2022-12-18T08:24:09;47.48;43.47;52.63;;
72858;Laerm;62742;52.136;4.500;2022-12-18T08:26:35;47.54;43.36;52.49;;
72858;Laerm;62742;52.136;4.500;2022-12-18T08:29:01;47.72;43.22;53.09;;
72858;Laerm;62742;52.136;4.500;2022-12-18T08:31:29;47.64;42.79;52.48;;
72858;Laerm;62742;52.136;4.500;2022-12-18T08:33:56;47.82;43.72;52.81;;
72858;Laerm;62742;52.136;4.500;2022-12-18T08:36:23;47.80;42.99;52.82;;
72858;Laerm;62742;52.136;4.500;2022-12-18T08:38:50;47.84;43.49;53.09;;
72858;Laerm;62742;52.136;4.500;2022-12-18T08:41:17;47.69;43.30;53.20;;
72858;Laerm;62742;52.136;4.500;2022-12-18T08:43:44;47.53;43.30;52.62;;
72858;Laerm;62742;52.136;4.500;2022-12-18T08:46:34;47.51;43.07;53.16;;
72858;Laerm;62742;52.136;4.500;2022-12-18T08:49:01;47.47;43.67;52.91;;
72858;Laerm;62742;52.136;4.500;2022-12-18T08:51:28;47.50;43.22;53.29;;
72858;Laerm;62742;52.136;4.500;2022-12-18T08:53:54;47.29;43.30;52.85;;
72858;Laerm;62742;52.136;4.500;2022-12-18T08:56:20;47.28;43.36;52.58;;
72858;Laerm;62742;52.136;4.500;2022-12-18T08:58:47;47.49;42.41;52.94;;
72858;Laerm;62742;52.136;4.500;2022-12-18T09:01:13;47.78;43.32;53.38;;
72858;Laerm;62742;52.136;4.500;2022-12-18T09:03:39;47.28;43.74;52.98;;
72858;Laerm;62742;52.136;4.500;2022-12-18T09:06:06;47.49;43.13;52.78;;
72858;Laerm;62742;52.136;4.500;2022-12-18T09:08:34;47.58;43.43;54.09;;
72858;Laerm;62742;52.136;4.500;2022-12-18T09:11:00;47.47;43.40;53.18;;
72858;Laerm;62742;52.136;4.500;2022-12-18T09:13:26;47.49;43.33;53.10;;
72858;Laerm;62742;52.136;4.500;2022-12-18T09:15:54;47.43;43.44;52.76;;
72858;Laerm;62742;52.136;4.500;2022-12-18T09:18:23;47.46;43.73;53.11;;
72858;Laerm;62742;52.136;4.500;2022-12-18T09:20:50;47.57;43.15;53.18;;
72858;Laerm;62742;52.136;4.500;2022-12-18T09:23:19;47.62;43.16;53.36;;
72858;Laerm;62742;52.136;4.500;2022-12-18T09:25:45;47.92;42.59;53.15;;
72858;Laerm;62742;52.136;4.500;2022-12-18T09:28:13;47.81;43.75;53.56;;
72858;Laerm;62742;52.136;4.500;2022-12-18T09:30:42;47.93;43.61;53.25;;
72858;Laerm;62742;52.136;4.500;2022-12-18T09:33:09;47.71;43.42;53.56;;
72858;Laerm;62742;52.136;4.500;2022-12-18T09:35:39;47.48;43.17;52.97;;
72858;Laerm;62742;52.136;4.500;2022-12-18T09:38:08;47.70;43.48;53.12;;
72858;Laerm;62742;52.136;4.500;2022-12-18T09:40:46;47.81;43.24;53.68;;
72858;Laerm;62742;52.136;4.500;2022-12-18T09:43:29;47.66;43.28;53.25;;
72858;Laerm;62742;52.136;4.500;2022-12-18T09:46:02;47.83;43.60;53.31;;
72858;Laerm;62742;52.136;4.500;2022-12-18T09:48:34;47.65;43.58;53.34;;
72858;Laerm;62742;52.136;4.500;2022-12-18T09:51:42;47.79;42.92;53.16;;
72858;Laerm;62742;52.136;4.500;2022-12-18T09:54:20;47.74;41.78;53.72;;
72858;Laerm;62742;52.136;4.500;2022-12-18T09:56:48;47.42;42.34;53.33;;
72858;Laerm;62742;52.136;4.500;2022-12-18T09:59:27;47.39;43.12;53.32;;
72858;Laerm;62742;52.136;4.500;2022-12-18T10:01:56;47.29;42.99;53.50;;
72858;Laerm;62742;52.136;4.500;2022-12-18T10:04:24;47.20;42.60;53.66;;
72858;Laerm;62742;52.136;4.500;2022-12-18T10:09:48;47.05;42.76;52.61;;
72858;Laerm;62742;52.136;4.500;2022-12-18T10:12:26;46.98;42.50;52.78;;
72858;Laerm;62742;52.136;4.500;2022-12-18T10:15:05;46.84;43.22;52.55;;
72858;Laerm;62742;52.136;4.500;2022-12-18T10:20:41;47.11;43.41;52.32;;
72858;Laerm;62742;52.136;4.500;2022-12-18T10:23:43;47.20;42.13;52.78;;
72858;Laerm;62742;52.136;4.500;2022-12-18T10:26:14;47.16;43.53;52.51;;
72858;Laerm;62742;52.136;4.500;2022-12-18T10:28:41;47.43;43.42;52.65;;
72858;Laerm;62742;52.136;4.500;2022-12-18T10:31:19;47.60;43.05;53.97;;
72858;Laerm;62742;52.136;4.500;2022-12-18T10:33:45;47.34;42.90;52.54;;
72858;Laerm;62742;52.136;4.500;2022-12-18T10:36:12;47.32;42.95;53.00;;
72858;Laerm;62742;52.136;4.500;2022-12-18T10:38:38;47.39;43.67;53.21;;
72858;Laerm;62742;52.136;4.500;2022-12-18T10:43:45;47.26;42.98;53.01;;
72858;Laerm;62742;52.136;4.500;2022-12-18T10:46:12;47.40;43.02;53.74;;
72858;Laerm;62742;52.136;4.500;2022-12-18T10:51:26;47.38;43.60;52.91;;
72858;Laerm;62742;52.136;4.500;2022-12-18T10:54:01;47.39;43.38;53.30;;
72858;Laerm;62742;52.136;4.500;2022-12-18T10:56:30;47.34;42.82;53.08;;
72858;Laerm;62742;52.136;4.500;2022-12-18T10:59:03;47.03;42.70;53.30;;
72858;Laerm;62742;52.136;4.500;2022-12-18T11:02:10;47.71;43.49;53.58;;
72858;Laerm;62742;52.136;4.500;2022-12-18T11:04:52;47.96;43.77;53.27;;
72858;Laerm;62742;52.136;4.500;2022-12-18T11:07:18;47.82;43.39;53.40;;
72858;Laerm;62742;52.136;4.500;2022-12-18T11:09:59;48.05;43.54;54.19;;
72858;Laerm;62742;52.136;4.500;2022-12-18T11:12:29;47.81;43.64;54.07;;
72858;Laerm;62742;52.136;4.500;2022-12-18T11:14:55;48.40;43.54;53.75;;
72858;Laerm;62742;52.136;4.500;2022-12-18T11:17:33;48.32;43.57;54.45;;
72858;Laerm;62742;52.136;4.500;2022-12-18T11:23:11;47.66;42.93;52.95;;
72858;Laerm;62742;52.136;4.500;2022-12-18T11:25:38;48.05;43.38;54.29;;
72858;Laerm;62742;52.136;4.500;2022-12-18T11:28:26;48.01;43.29;53.30;;
72858;Laerm;62742;52.136;4.500;2022-12-18T11:31:26;47.74;43.15;53.36;;
72858;Laerm;62742;52.136;4.500;2022-12-18T11:34:30;47.88;43.69;53.21;;
72858;Laerm;62742;52.136;4.500;2022-12-18T11:36:59;47.91;43.02;53.64;;
72858;Laerm;62742;52.136;4.500;2022-12-18T11:39:36;47.63;43.09;53.58;;
72858;Laerm;62742;52.136;4.500;2022-12-18T11:42:12;48.01;43.75;53.57;;
72858;Laerm;62742;52.136;4.500;2022-12-18T11:47:19;47.88;44.11;53.83;;
72858;Laerm;62742;52.136;4.500;2022-12-18T11:49:49;47.78;43.39;53.64;;
72858;Laerm;62742;52.136;4.500;2022-12-18T11:52:20;47.88;43.99;53.54;;
72858;Laerm;62742;52.136;4.500;2022-12-18T11:54:51;48.00;43.68;54.03;;
72858;Laerm;62742;52.136;4.500;2022-12-18T11:57:42;47.60;43.38;53.89;;
72858;Laerm;62742;52.136;4.500;2022-12-18T12:00:18;47.78;42.11;53.68;;
72858;Laerm;62742;52.136;4.500;2022-12-18T12:13:58;48.17;43.13;54.31;;
72858;Laerm;62742;52.136;4.500;2022-12-18T12:25:21;48.26;43.39;54.86;;
72858;Laerm;62742;52.136;4.500;2022-12-18T12:33:18;47.86;43.10;54.07;;
72858;Laerm;62742;52.136;4.500;2022-12-18T12:38:19;48.02;42.99;53.65;;
72858;Laerm;62742;52.136;4.500;2022-12-18T12:40:57;47.90;43.68;53.89;;
72858;Laerm;62742;52.136;4.500;2022-12-18T12:43:51;48.29;43.69;54.04;;
72858;Laerm;62742;52.136;4.500;2022-12-18T12:46:20;48.17;43.87;54.67;;
72858;Laerm;62742;52.136;4.500;2022-12-18T12:48:55;48.00;43.04;53.70;;
72858;Laerm;62742;52.136;4.500;2022-12-18T12:53:51;47.71;43.11;53.24;;
72858;Laerm;62742;52.136;4.500;2022-12-18T12:56:20;48.02;43.52;53.75;;
72858;Laerm;62742;52.136;4.500;2022-12-18T12:59:04;48.00;43.68;53.84;;
72858;Laerm;62742;52.136;4.500;2022-12-18T13:01:58;48.06;42.65;54.01;;
72858;Laerm;62742;52.136;4.500;2022-12-18T13:07:12;47.74;43.25;54.24;;
72858;Laerm;62742;52.136;4.500;2022-12-18T13:12:55;48.45;43.91;55.04;;
72858;Laerm;62742;52.136;4.500;2022-12-18T13:20:37;48.19;43.26;54.27;;
72858;Laerm;62742;52.136;4.500;2022-12-18T13:23:28;47.97;43.34;53.43;;
72858;Laerm;62742;52.136;4.500;2022-12-18T13:25:56;48.05;43.42;54.11;;
72858;Laerm;62742;52.136;4.500;2022-12-18T13:31:47;48.01;43.19;54.20;;
72858;Laerm;62742;52.136;4.500;2022-12-18T13:34:20;48.03;43.37;54.39;;
72858;Laerm;62742;52.136;4.500;2022-12-18T13:36:48;47.80;42.38;53.67;;
72858;Laerm;62742;52.136;4.500;2022-12-18T13:44:38;48.14;43.61;54.50;;
72858;Laerm;62742;52.136;4.500;2022-12-18T13:47:27;48.47;43.62;54.72;;
72858;Laerm;62742;52.136;4.500;2022-12-18T13:49:57;48.31;44.40;54.01;;
72858;Laerm;62742;52.136;4.500;2022-12-18T13:52:35;48.29;44.05;54.52;;
72858;Laerm;62742;52.136;4.500;2022-12-18T13:55:07;47.99;43.58;53.61;;
72858;Laerm;62742;52.136;4.500;2022-12-18T13:57:40;47.98;43.72;53.87;;
72858;Laerm;62742;52.136;4.500;2022-12-18T14:02:49;47.93;43.60;53.66;;
72858;Laerm;62742;52.136;4.500;2022-12-18T14:05:30;47.50;42.43;53.72;;
72858;Laerm;62742;52.136;4.500;2022-12-18T14:08:15;47.77;42.90;54.09;;
72858;Laerm;62742;52.136;4.500;2022-12-18T14:10:44;47.64;42.54;54.57;;
72858;Laerm;62742;52.136;4.500;2022-12-18T14:13:18;47.74;43.27;53.45;;
72858;Laerm;62742;52.136;4.500;2022-12-18T14:15:48;47.90;43.28;54.13;;
72858;Laerm;62742;52.136;4.500;2022-12-18T14:20:52;48.50;43.80;54.67;;
72858;Laerm;62742;52.136;4.500;2022-12-18T14:26:29;47.82;43.26;54.42;;
72858;Laerm;62742;52.136;4.500;2022-12-18T14:28:58;47.85;43.16;53.66;;
72858;Laerm;62742;52.136;4.500;2022-12-18T14:31:29;47.97;42.82;53.95;;
72858;Laerm;62742;52.136;4.500;2022-12-18T14:33:56;47.99;43.37;53.77;;
72858;Laerm;62742;52.136;4.500;2022-12-18T14:36:28;48.25;43.83;53.90;;
72858;Laerm;62742;52.136;4.500;2022-12-18T14:38:57;48.26;43.76;54.10;;
72858;Laerm;62742;52.136;4.500;2022-12-18T14:41:25;48.10;43.50;54.32;;
72858;Laerm;62742;52.136;4.500;2022-12-18T14:43:53;48.16;43.76;53.50;;
72858;Laerm;62742;52.136;4.500;2022-12-18T14:49:17;48.23;43.80;54.66;;
72858;Laerm;62742;52.136;4.500;2022-12-18T14:51:52;47.83;42.79;54.56;;
72858;Laerm;62742;52.136;4.500;2022-12-18T14:54:19;48.04;43.51;53.92;;
72858;Laerm;62742;52.136;4.500;2022-12-18T14:56:49;48.06;43.47;53.86;;
72858;Laerm;62742;52.136;4.500;2022-12-18T14:59:20;48.41;43.69;54.80;;
72858;Laerm;62742;52.136;4.500;2022-12-18T15:04:44;48.31;43.61;54.75;;
72858;Laerm;62742;52.136;4.500;2022-12-18T15:09:37;48.63;43.62;54.76;;
72858;Laerm;62742;52.136;4.500;2022-12-18T15:12:04;48.45;43.56;54.42;;
72858;Laerm;62742;52.136;4.500;2022-12-18T15:14:40;48.62;43.78;54.41;;
72858;Laerm;62742;52.136;4.500;2022-12-18T15:17:17;48.66;43.44;54.66;;
72858;Laerm;62742;52.136;4.500;2022-12-18T15:19:45;48.65;43.48;54.46;;
72858;Laerm;62742;52.136;4.500;2022-12-18T15:22:27;48.69;43.31;54.42;;
72858;Laerm;62742;52.136;4.500;2022-12-18T15:24:56;48.65;43.66;54.41;;
72858;Laerm;62742;52.136;4.500;2022-12-18T15:32:39;48.39;42.98;55.28;;
72858;Laerm;62742;52.136;4.500;2022-12-18T15:37:35;48.23;42.85;54.16;;
72858;Laerm;62742;52.136;4.500;2022-12-18T15:40:01;48.43;43.93;54.84;;
72858;Laerm;62742;52.136;4.500;2022-12-18T15:42:29;48.33;43.80;54.03;;
72858;Laerm;62742;52.136;4.500;2022-12-18T15:45:14;48.13;43.41;54.55;;
72858;Laerm;62742;52.136;4.500;2022-12-18T15:47:41;48.11;43.03;54.27;;
72858;Laerm;62742;52.136;4.500;2022-12-18T15:50:10;48.68;43.20;55.35;;